createdAt,value
2024-02-12T00:00:33.906Z,1.70
2024-02-12T00:03:01.834Z,1.90
2024-02-12T00:05:29.688Z,1.90
2024-02-12T00:07:57.546Z,1.88
2024-02-12T00:10:26.747Z,1.70
2024-02-12T00:12:56.706Z,1.77
2024-02-12T00:15:24.774Z,1.80
2024-02-12T00:17:52.499Z,1.77
2024-02-12T00:20:20.358Z,1.50
2024-02-12T00:22:48.780Z,1.70
2024-02-12T00:25:18.566Z,1.67
2024-02-12T00:27:48.583Z,1.42
2024-02-12T00:30:17.230Z,1.70
2024-02-12T00:32:45.535Z,1.60
2024-02-12T00:35:15.772Z,1.58
2024-02-12T00:37:43.580Z,1.65
2024-02-12T00:40:13.269Z,1.58
2024-02-12T00:42:42.072Z,1.70
2024-02-12T00:45:12.397Z,1.65
2024-02-12T00:47:41.434Z,1.70
2024-02-12T00:50:10.882Z,1.60
2024-02-12T00:52:39.169Z,1.80
2024-02-12T00:55:09.055Z,2.05
2024-02-12T00:57:37.116Z,1.75
2024-02-12T01:00:13.875Z,1.85
2024-02-12T01:02:43.753Z,1.60
2024-02-12T01:05:12.040Z,2.00
2024-02-12T01:07:42.033Z,1.65
2024-02-12T01:10:10.658Z,1.77
2024-02-12T01:12:40.833Z,1.95
2024-02-12T01:15:11.130Z,1.83
2024-02-12T01:17:43.002Z,1.77
2024-02-12T01:20:17.735Z,1.70
2024-02-12T01:22:45.614Z,1.70
2024-02-12T01:25:13.610Z,1.73
2024-02-12T01:27:41.637Z,1.70
2024-02-12T01:30:10.375Z,1.73
2024-02-12T01:32:38.344Z,1.90
2024-02-12T01:35:07.574Z,1.70
2024-02-12T01:37:36.907Z,1.67
2024-02-12T01:40:05.448Z,1.95
2024-02-12T01:42:34.699Z,1.90
2024-02-12T01:45:13.976Z,1.60
2024-02-12T01:47:43.705Z,1.80
2024-02-12T01:50:13.413Z,1.90
2024-02-12T01:52:50.078Z,1.85
2024-02-12T01:55:20.117Z,1.73
2024-02-12T01:57:51.433Z,1.70
2024-02-12T02:00:23.347Z,1.65
2024-02-12T02:02:52.405Z,1.30
2024-02-12T02:05:20.428Z,1.50
2024-02-12T02:07:54.263Z,1.33
2024-02-12T02:10:24.026Z,1.65
2024-02-12T02:12:54.528Z,1.60
2024-02-12T02:15:22.665Z,1.50
2024-02-12T02:17:50.720Z,1.30
2024-02-12T02:20:25.021Z,1.67
2024-02-12T02:22:55.546Z,1.83
2024-02-12T02:25:24.942Z,1.50
2024-02-12T02:27:52.788Z,1.70
2024-02-12T02:30:21.058Z,1.48
2024-02-12T02:32:50.359Z,1.50
2024-02-12T02:35:18.477Z,1.40
2024-02-12T02:37:46.284Z,1.75
2024-02-12T02:40:14.231Z,1.30
2024-02-12T02:42:45.628Z,1.40
2024-02-12T02:45:13.691Z,1.38
2024-02-12T02:47:44.466Z,1.50
2024-02-12T02:50:12.901Z,1.73
2024-02-12T02:52:41.080Z,1.40
2024-02-12T02:55:12.405Z,1.30
2024-02-12T02:57:40.640Z,1.27
2024-02-12T03:00:11.551Z,1.30
2024-02-12T03:02:39.365Z,1.30
2024-02-12T03:05:10.135Z,1.40
2024-02-12T03:07:38.758Z,1.10
2024-02-12T03:10:09.711Z,1.50
2024-02-12T03:12:37.577Z,1.08
2024-02-12T03:15:07.014Z,1.13
2024-02-12T03:17:36.237Z,1.00
2024-02-12T03:20:04.320Z,1.20
2024-02-12T03:22:32.206Z,1.05
2024-02-12T03:25:01.844Z,1.00
2024-02-12T03:27:29.749Z,1.50
2024-02-12T03:29:57.503Z,1.13
2024-02-12T03:32:26.032Z,1.00
2024-02-12T03:34:55.361Z,1.20
2024-02-12T03:37:23.149Z,1.10
2024-02-12T03:39:53.752Z,1.17
2024-02-12T03:42:23.256Z,0.93
2024-02-12T03:44:51.527Z,1.15
2024-02-12T03:47:19.726Z,1.25
2024-02-12T03:50:05.391Z,1.10
2024-02-12T03:52:52.065Z,1.23
2024-02-12T03:55:33.979Z,1.20
2024-02-12T03:58:21.680Z,1.05
2024-02-12T04:00:52.129Z,1.20
2024-02-12T04:03:20.771Z,1.10
2024-02-12T04:05:48.757Z,1.23
2024-02-12T04:08:18.172Z,1.00
2024-02-12T04:10:46.001Z,1.55
2024-02-12T04:13:15.997Z,1.20
2024-02-12T04:15:45.369Z,1.00
2024-02-12T04:18:15.366Z,1.20
2024-02-12T04:20:44.500Z,0.93
2024-02-12T04:23:16.128Z,1.00
2024-02-12T04:25:45.319Z,1.23
2024-02-12T04:28:14.564Z,0.90
2024-02-12T04:30:42.373Z,1.00
2024-02-12T04:33:10.165Z,1.13
2024-02-12T04:35:37.973Z,1.02
2024-02-12T04:38:07.761Z,1.10
2024-02-12T04:40:35.561Z,0.98
2024-02-12T04:43:05.232Z,1.25
2024-02-12T04:45:33.095Z,1.00
2024-02-12T04:48:01.007Z,1.30
2024-02-12T04:50:30.010Z,0.90
2024-02-12T04:52:57.810Z,0.80
2024-02-12T04:55:26.107Z,1.10
2024-02-12T04:57:53.825Z,1.00
2024-02-12T05:00:23.293Z,0.82
2024-02-12T05:02:51.051Z,0.90
2024-02-12T05:05:19.027Z,1.10
2024-02-12T05:07:46.894Z,1.05
2024-02-12T05:10:14.805Z,1.20
2024-02-12T05:12:42.870Z,1.00
2024-02-12T05:15:11.704Z,1.20
2024-02-12T05:17:53.755Z,1.20
2024-02-12T05:20:39.216Z,0.93
2024-02-12T05:23:10.471Z,1.17
2024-02-12T05:25:38.497Z,1.30
2024-02-12T05:28:06.361Z,1.02
2024-02-12T05:30:34.120Z,1.15
2024-02-12T05:33:03.457Z,1.38
2024-02-12T05:35:31.945Z,0.90
2024-02-12T05:37:59.866Z,1.35
2024-02-12T05:40:27.611Z,0.90
2024-02-12T05:42:55.346Z,0.80
2024-02-12T05:45:23.089Z,1.00
2024-02-12T05:47:50.906Z,0.95
2024-02-12T05:50:20.918Z,1.00
2024-02-12T05:52:49.054Z,0.93
2024-02-12T05:55:16.837Z,1.20
2024-02-12T05:57:44.600Z,1.20
2024-02-12T06:00:13.305Z,1.10
2024-02-12T06:02:41.216Z,0.90
2024-02-12T06:05:09.587Z,1.20
2024-02-12T06:07:41.126Z,1.17
2024-02-12T06:10:10.001Z,1.10
2024-02-12T06:12:37.788Z,0.98
2024-02-12T06:15:06.172Z,0.93
2024-02-12T06:17:34.590Z,1.10
2024-02-12T06:20:02.646Z,1.00
2024-02-12T06:22:30.472Z,1.02
2024-02-12T06:24:59.681Z,1.10
2024-02-12T06:27:29.471Z,0.90
2024-02-12T06:29:58.816Z,1.10
2024-02-12T06:32:26.586Z,0.93
2024-02-12T06:34:54.393Z,1.00
2024-02-12T06:37:22.260Z,1.00
2024-02-12T06:39:51.078Z,1.40
2024-02-12T06:42:20.261Z,1.30
2024-02-12T06:44:48.021Z,1.10
2024-02-12T06:47:16.520Z,1.13
2024-02-12T06:49:46.312Z,1.48
2024-02-12T06:52:15.172Z,1.70
2024-02-12T06:54:44.860Z,1.60
2024-02-12T06:57:14.082Z,4.45
2024-02-12T06:59:44.144Z,2.17
2024-02-12T07:02:12.192Z,1.88
2024-02-12T07:04:41.093Z,1.10
2024-02-12T07:07:08.838Z,1.00
2024-02-12T07:09:37.185Z,1.15
2024-02-12T07:12:05.787Z,1.40
2024-02-12T07:14:33.706Z,1.50
2024-02-12T07:17:02.866Z,1.30
2024-02-12T07:19:33.570Z,1.20
2024-02-12T07:22:01.786Z,1.63
2024-02-12T07:24:30.046Z,1.30
2024-02-12T07:26:57.880Z,1.13
2024-02-12T07:29:25.666Z,1.40
2024-02-12T07:31:53.792Z,1.05
2024-02-12T07:34:22.896Z,1.00
2024-02-12T07:36:50.750Z,1.40
2024-02-12T07:39:18.829Z,1.40
2024-02-12T07:41:48.499Z,1.50
2024-02-12T07:44:16.388Z,1.90
2024-02-12T07:46:44.315Z,1.65
2024-02-12T07:49:12.437Z,1.83
2024-02-12T07:51:42.063Z,2.10
2024-02-12T07:54:09.896Z,3.28
2024-02-12T07:56:37.757Z,3.53
2024-02-12T07:59:05.615Z,1.80
2024-02-12T08:01:33.472Z,1.60
2024-02-12T08:04:01.392Z,1.60
2024-02-12T08:06:31.508Z,1.60
2024-02-12T08:09:00.693Z,1.80
2024-02-12T08:11:28.486Z,1.92
2024-02-12T08:13:56.315Z,1.85
2024-02-12T08:16:24.149Z,1.98
2024-02-12T08:18:54.146Z,1.50
2024-02-12T08:21:22.104Z,1.77
2024-02-12T08:23:50.775Z,1.60
2024-02-12T08:26:20.571Z,1.58
2024-02-12T08:28:48.578Z,1.60
2024-02-12T08:31:18.915Z,1.40
2024-02-12T08:33:49.222Z,1.40
2024-02-12T08:36:18.562Z,1.50
2024-02-12T08:38:46.379Z,1.15
2024-02-12T08:41:24.374Z,1.30
2024-02-12T08:43:54.320Z,1.42
2024-02-12T08:46:22.116Z,1.50
2024-02-12T08:48:50.024Z,1.30
2024-02-12T08:51:17.845Z,1.38
2024-02-12T08:53:45.850Z,1.48
2024-02-12T08:56:17.582Z,1.33
2024-02-12T08:58:47.155Z,1.40
2024-02-12T09:01:18.229Z,1.33
2024-02-12T09:03:47.823Z,1.23
2024-02-12T09:06:17.626Z,1.33
2024-02-12T09:08:46.868Z,1.20
2024-02-12T09:11:18.266Z,1.42
2024-02-12T09:13:48.183Z,1.40
2024-02-12T09:16:18.166Z,1.40
2024-02-12T09:18:48.093Z,1.40
2024-02-12T09:21:16.112Z,1.60
2024-02-12T09:23:44.178Z,1.35
2024-02-12T09:26:12.110Z,1.48
2024-02-12T09:28:39.916Z,1.70
2024-02-12T09:31:09.117Z,1.50
2024-02-12T09:33:37.281Z,1.80
2024-02-12T09:36:06.425Z,1.60
2024-02-12T09:38:34.950Z,1.55
2024-02-12T09:41:03.671Z,1.90
2024-02-12T09:43:35.000Z,1.50
2024-02-12T09:46:06.091Z,1.60
2024-02-12T09:48:35.376Z,1.45
2024-02-12T09:51:06.221Z,1.58
2024-02-12T09:53:38.389Z,1.70
2024-02-12T09:56:06.785Z,1.85
2024-02-12T09:58:34.729Z,1.60
2024-02-12T10:01:04.041Z,1.52
2024-02-12T10:03:32.084Z,1.52
2024-02-12T10:06:01.303Z,1.50
2024-02-12T10:08:29.558Z,1.80
2024-02-12T10:10:57.521Z,1.63
2024-02-12T10:13:25.949Z,1.63
2024-02-12T10:15:54.690Z,1.48
2024-02-12T10:18:22.508Z,2.20
2024-02-12T10:20:51.182Z,1.80
2024-02-12T10:23:21.301Z,1.90
2024-02-12T10:25:52.092Z,1.40
2024-02-12T10:28:23.002Z,1.85
2024-02-12T10:30:50.866Z,1.60
2024-02-12T10:33:18.836Z,1.52
2024-02-12T10:35:50.165Z,2.00
2024-02-12T10:38:18.604Z,2.20
2024-02-12T10:41:05.075Z,1.90
2024-02-12T10:43:35.074Z,2.15
2024-02-12T10:46:04.871Z,2.00
2024-02-12T10:48:33.870Z,2.22
2024-02-12T10:51:02.677Z,1.80
2024-02-12T10:53:31.436Z,1.70
2024-02-12T10:56:01.079Z,1.85
2024-02-12T10:58:29.789Z,1.80
2024-02-12T11:03:37.228Z,1.70
2024-02-12T11:08:37.756Z,1.90
2024-02-12T11:11:15.011Z,1.50
2024-02-12T11:13:45.120Z,1.90
2024-02-12T11:16:17.923Z,1.55
2024-02-12T11:18:48.517Z,1.50
2024-02-12T11:21:20.300Z,1.52
2024-02-12T11:23:51.956Z,1.50
2024-02-12T11:26:23.243Z,2.22
2024-02-12T11:28:56.050Z,1.70
2024-02-12T11:31:27.388Z,1.85
2024-02-12T11:33:56.826Z,1.88
2024-02-12T11:36:24.954Z,2.00
2024-02-12T11:38:52.870Z,1.63
2024-02-12T11:41:22.043Z,1.70
2024-02-12T11:43:50.186Z,1.85
2024-02-12T11:46:19.591Z,1.67
2024-02-12T11:48:47.804Z,2.20
2024-02-12T11:51:21.825Z,1.85
2024-02-12T11:53:53.434Z,1.77
2024-02-12T11:56:25.111Z,2.03
2024-02-12T11:58:56.325Z,1.85
2024-02-12T12:01:24.917Z,1.85
2024-02-12T12:03:53.241Z,1.70
2024-02-12T12:06:23.514Z,2.30
2024-02-12T12:08:51.592Z,1.70
2024-02-12T12:11:24.295Z,1.88
2024-02-12T12:13:58.719Z,1.80
2024-02-12T12:16:26.559Z,1.80
2024-02-12T12:18:54.804Z,1.70
2024-02-12T12:21:23.087Z,1.63
2024-02-12T12:23:51.231Z,1.90
2024-02-12T12:26:20.541Z,1.55
2024-02-12T12:28:49.727Z,1.88
2024-02-12T12:31:17.516Z,1.98
2024-02-12T12:33:45.461Z,1.88
2024-02-12T12:36:14.586Z,1.65
2024-02-12T12:38:43.031Z,1.90
2024-02-12T12:41:11.566Z,1.70
2024-02-12T12:43:39.812Z,1.50
2024-02-12T12:46:08.932Z,1.77
2024-02-12T12:48:36.938Z,1.63
2024-02-12T12:51:06.904Z,1.50
2024-02-12T12:53:34.824Z,1.52
2024-02-12T12:56:04.055Z,1.45
2024-02-12T12:58:33.372Z,1.45
2024-02-12T13:01:01.263Z,1.60
2024-02-12T13:03:31.249Z,1.20
2024-02-12T13:05:59.764Z,1.27
2024-02-12T13:08:27.675Z,1.98
2024-02-12T13:10:56.678Z,1.40
2024-02-12T13:13:24.887Z,1.60
2024-02-12T13:15:53.342Z,1.40
2024-02-12T13:18:27.683Z,1.50
2024-02-12T13:20:58.171Z,1.55
2024-02-12T13:23:26.842Z,1.60
2024-02-12T13:25:54.803Z,1.42
2024-02-12T13:28:23.315Z,1.70
2024-02-12T13:30:53.561Z,1.80
2024-02-12T13:33:22.511Z,1.58
2024-02-12T13:35:50.692Z,1.40
2024-02-12T13:38:21.983Z,1.90
2024-02-12T13:40:50.558Z,1.92
2024-02-12T13:43:22.333Z,2.05
2024-02-12T13:45:51.409Z,1.83
2024-02-12T13:48:21.485Z,1.60
2024-02-12T13:50:50.007Z,1.90
2024-02-12T13:53:19.484Z,1.50
2024-02-12T13:55:48.340Z,1.40
2024-02-12T13:58:16.226Z,1.60
2024-02-12T14:00:58.886Z,1.58
2024-02-12T14:03:34.056Z,1.70
2024-02-12T14:06:02.654Z,1.80
2024-02-12T14:08:33.147Z,1.70
2024-02-12T14:11:01.063Z,1.88
2024-02-12T14:13:28.892Z,2.20
2024-02-12T14:16:06.118Z,1.83
2024-02-12T14:18:38.481Z,1.92
2024-02-12T14:21:10.333Z,2.38
2024-02-12T14:23:40.643Z,2.20
2024-02-12T14:26:10.641Z,2.20
2024-02-12T14:28:38.537Z,1.90
2024-02-12T14:31:08.186Z,2.13
2024-02-12T14:33:36.210Z,2.10
2024-02-12T14:36:04.749Z,1.77
2024-02-12T14:38:32.654Z,1.83
2024-02-12T14:41:03.777Z,2.17
2024-02-12T14:43:32.537Z,2.22
2024-02-12T14:46:01.555Z,1.88
2024-02-12T14:48:29.530Z,1.90
2024-02-12T14:50:57.923Z,2.17
2024-02-12T14:53:26.205Z,1.70
2024-02-12T14:55:54.006Z,2.17
2024-02-12T14:58:23.170Z,2.20
2024-02-12T15:00:51.114Z,2.20
2024-02-12T15:03:19.445Z,2.00
2024-02-12T15:05:47.981Z,2.20
2024-02-12T15:08:19.818Z,2.15
2024-02-12T15:10:50.312Z,2.08
2024-02-12T15:13:20.904Z,2.22
2024-02-12T15:15:50.215Z,2.05
2024-02-12T15:18:18.658Z,2.20
2024-02-12T15:20:47.434Z,1.90
2024-02-12T15:23:16.409Z,2.25
2024-02-12T15:25:45.556Z,2.00
2024-02-12T15:28:16.260Z,2.30
2024-02-12T15:30:47.071Z,2.25
2024-02-12T15:33:16.775Z,2.45
2024-02-12T15:35:46.087Z,2.03
2024-02-12T15:38:14.001Z,2.03
2024-02-12T15:40:44.575Z,2.42
2024-02-12T15:43:13.468Z,2.20
2024-02-12T15:45:41.367Z,2.75
2024-02-12T15:48:16.110Z,2.92
2024-02-12T15:50:47.319Z,2.35
2024-02-12T15:53:15.280Z,2.30
2024-02-12T15:55:43.601Z,2.80
2024-02-12T15:58:12.204Z,1.75
2024-02-12T16:00:41.606Z,2.38
2024-02-12T16:03:12.835Z,2.58
2024-02-12T16:06:15.967Z,1.90
2024-02-12T16:08:45.881Z,1.65
2024-02-12T16:11:18.195Z,1.90
2024-02-12T16:13:50.519Z,1.42
2024-02-12T16:16:20.516Z,1.33
2024-02-12T16:18:49.394Z,1.10
2024-02-12T16:21:18.895Z,1.20
2024-02-12T16:23:47.335Z,1.05
2024-02-12T16:26:15.384Z,2.10
2024-02-12T16:28:44.067Z,1.35
2024-02-12T16:31:12.506Z,1.42
2024-02-12T16:33:40.481Z,1.85
2024-02-12T16:36:09.363Z,1.10
2024-02-12T16:38:38.786Z,1.23
2024-02-12T16:41:07.251Z,1.33
2024-02-12T16:43:35.323Z,1.60
2024-02-12T16:46:03.864Z,2.42
2024-02-12T16:48:33.541Z,1.60
2024-02-12T16:51:01.466Z,1.70
2024-02-12T16:53:29.480Z,1.48
2024-02-12T16:55:58.735Z,1.50
2024-02-12T16:58:27.681Z,1.38
2024-02-12T17:00:56.864Z,1.40
2024-02-12T17:03:25.994Z,1.58
2024-02-12T17:05:54.004Z,1.20
2024-02-12T17:08:21.986Z,1.30
2024-02-12T17:10:50.247Z,1.80
2024-02-12T17:13:19.376Z,2.38
2024-02-12T17:15:50.597Z,2.65
2024-02-12T17:18:18.467Z,5.03
2024-02-12T17:20:46.804Z,5.68
2024-02-12T17:23:14.605Z,5.47
2024-02-12T17:25:42.474Z,2.30
2024-02-12T17:28:10.851Z,5.40
2024-02-12T17:30:40.456Z,5.25
2024-02-12T17:33:09.899Z,4.35
2024-02-12T17:35:37.212Z,2.67
2024-02-12T17:38:05.920Z,2.42
2024-02-12T17:40:34.335Z,3.13
2024-02-12T17:43:02.134Z,2.33
2024-02-12T17:45:30.345Z,2.22
2024-02-12T17:47:59.811Z,2.03
2024-02-12T17:50:27.709Z,1.90
2024-02-12T17:52:55.651Z,2.00
2024-02-12T17:55:23.762Z,2.03
2024-02-12T17:57:53.172Z,1.60
2024-02-12T18:00:21.770Z,1.55
2024-02-12T18:02:49.677Z,1.88
2024-02-12T18:05:19.216Z,1.42
2024-02-12T18:07:47.193Z,1.50
2024-02-12T18:10:15.288Z,1.48
2024-02-12T18:12:45.873Z,1.98
2024-02-12T18:15:14.831Z,1.73
2024-02-12T18:17:43.588Z,1.67
2024-02-12T18:20:13.928Z,2.10
2024-02-12T18:22:43.619Z,2.28
2024-02-12T18:25:13.765Z,2.17
2024-02-12T18:27:41.848Z,2.70
2024-02-12T18:30:12.118Z,2.33
2024-02-12T18:32:41.382Z,2.63
2024-02-12T18:35:11.782Z,2.50
2024-02-12T18:37:41.058Z,2.03
2024-02-12T18:40:18.255Z,2.15
2024-02-12T18:42:47.404Z,2.10
2024-02-12T18:45:17.866Z,2.28
2024-02-12T18:47:48.997Z,2.63
2024-02-12T18:50:18.514Z,2.70
2024-02-12T18:52:49.711Z,2.30
2024-02-12T18:55:20.564Z,2.40
2024-02-12T18:57:49.417Z,3.17
2024-02-12T19:00:19.181Z,2.67
2024-02-12T19:02:47.146Z,3.25
2024-02-12T19:05:15.469Z,3.33
2024-02-12T19:07:43.410Z,3.38
2024-02-12T19:10:13.020Z,2.97
2024-02-12T19:12:44.087Z,2.65
2024-02-12T19:15:15.305Z,3.40
2024-02-12T19:17:44.149Z,3.30
2024-02-12T19:20:13.420Z,3.55
2024-02-12T19:22:41.420Z,3.45
2024-02-12T19:25:11.114Z,4.05
2024-02-12T19:27:39.234Z,3.70
2024-02-12T19:30:10.384Z,4.22
2024-02-12T19:32:39.738Z,3.67
2024-02-12T19:35:11.869Z,3.53
2024-02-12T19:37:40.341Z,3.67
2024-02-12T19:40:15.134Z,3.55
2024-02-12T19:42:45.933Z,4.68
2024-02-12T19:45:16.360Z,4.30
2024-02-12T19:47:44.776Z,4.90
2024-02-12T19:50:14.239Z,4.60
2024-02-12T19:52:42.610Z,4.13
2024-02-12T19:55:10.566Z,4.43
2024-02-12T19:57:40.079Z,4.20
2024-02-12T20:00:14.196Z,4.32
2024-02-12T20:02:44.857Z,4.50
2024-02-12T20:05:13.575Z,5.10
2024-02-12T20:07:42.182Z,5.80
2024-02-12T20:10:11.994Z,5.38
2024-02-12T20:12:42.871Z,5.80
2024-02-12T20:15:13.069Z,5.88
2024-02-12T20:17:42.527Z,4.93
2024-02-12T20:20:13.538Z,5.50
2024-02-12T20:22:42.594Z,4.50
2024-02-12T20:25:11.313Z,5.05
2024-02-12T20:27:40.164Z,5.18
2024-02-12T20:30:12.025Z,5.00
2024-02-12T20:32:40.645Z,4.85
2024-02-12T20:35:10.716Z,4.28
2024-02-12T20:37:40.180Z,4.00
2024-02-12T20:40:11.089Z,4.60
2024-02-12T20:42:40.556Z,4.22
2024-02-12T20:45:10.103Z,4.07
2024-02-12T20:47:39.677Z,3.90
2024-02-12T20:50:09.136Z,4.10
2024-02-12T20:52:37.801Z,4.15
2024-02-12T20:55:08.484Z,4.05
2024-02-12T20:57:36.845Z,4.00
2024-02-12T21:00:05.462Z,4.10
2024-02-12T21:02:33.625Z,4.15
2024-02-12T21:05:01.546Z,4.20
2024-02-12T21:07:29.435Z,4.45
2024-02-12T21:09:57.214Z,3.92
2024-02-12T21:12:26.521Z,4.05
2024-02-12T21:14:54.373Z,4.03
2024-02-12T21:17:22.278Z,4.32
2024-02-12T21:19:50.161Z,4.90
2024-02-12T21:22:18.728Z,4.80
2024-02-12T21:24:46.745Z,4.45
2024-02-12T21:27:17.074Z,4.22
2024-02-12T21:29:47.738Z,5.30
2024-02-12T21:32:16.097Z,5.07
2024-02-12T21:34:44.253Z,7.10
2024-02-12T21:37:13.773Z,6.10
2024-02-12T21:39:46.757Z,5.30
2024-02-12T21:42:25.711Z,5.57
2024-02-12T21:44:57.349Z,5.30
2024-02-12T21:47:25.813Z,5.13
2024-02-12T21:49:54.478Z,5.45
2024-02-12T21:52:22.635Z,4.85
2024-02-12T21:54:52.371Z,5.47
2024-02-12T21:57:23.531Z,5.20
2024-02-12T21:59:53.199Z,5.18
2024-02-12T22:02:23.013Z,5.50
2024-02-12T22:04:52.651Z,5.47
2024-02-12T22:07:21.406Z,5.45
2024-02-12T22:09:49.588Z,5.72
2024-02-12T22:12:17.836Z,6.47
2024-02-12T22:14:46.131Z,6.15
2024-02-12T22:17:14.300Z,5.45
2024-02-12T22:19:43.939Z,5.78
2024-02-12T22:22:11.780Z,5.53
2024-02-12T22:24:41.507Z,6.00
2024-02-12T22:27:09.278Z,5.55
2024-02-12T22:29:37.110Z,5.50
2024-02-12T22:32:05.554Z,5.65
2024-02-12T22:34:33.987Z,5.03
2024-02-12T22:37:03.267Z,4.50
2024-02-12T22:39:31.023Z,4.80
2024-02-12T22:41:58.997Z,4.90
2024-02-12T22:44:26.798Z,4.40
2024-02-12T22:46:55.435Z,4.60
2024-02-12T22:49:23.556Z,4.05
2024-02-12T22:51:51.840Z,4.25
2024-02-12T22:54:21.226Z,4.15
2024-02-12T22:56:50.760Z,4.28
2024-02-12T22:59:19.596Z,4.20
2024-02-12T23:01:47.411Z,4.68
2024-02-12T23:04:15.466Z,5.25
2024-02-12T23:06:43.301Z,4.47
2024-02-12T23:09:11.074Z,4.30
2024-02-12T23:11:40.627Z,4.45
2024-02-12T23:14:10.864Z,4.60
2024-02-12T23:16:38.870Z,3.75
2024-02-12T23:19:08.149Z,4.45
2024-02-12T23:21:36.288Z,4.80
2024-02-12T23:24:06.666Z,4.28
2024-02-12T23:26:34.443Z,4.68
2024-02-12T23:29:03.555Z,4.32
2024-02-12T23:31:34.441Z,3.97
2024-02-12T23:34:02.789Z,4.28
2024-02-12T23:36:31.371Z,4.55
2024-02-12T23:38:59.188Z,4.30
2024-02-12T23:41:28.295Z,3.75
2024-02-12T23:43:56.043Z,4.70
2024-02-12T23:46:25.149Z,4.50
2024-02-12T23:48:52.952Z,4.85
2024-02-12T23:51:20.741Z,4.07
2024-02-12T23:53:48.619Z,4.55
2024-02-12T23:56:18.262Z,3.80
2024-02-12T23:58:46.009Z,4.35
